sensor_id;sensor_type;location;lat;lon;timestamp;P1;durP1;ratioP1;P2;durP2;ratioP2
15202;SDS011;7702;51.046;5.184;2022-07-23T00:00:10;8.27;;;7.10;;
15202;SDS011;7702;51.046;5.184;2022-07-23T00:02:36;8.93;;;8.00;;
15202;SDS011;7702;51.046;5.184;2022-07-23T00:05:02;8.73;;;7.73;;
15202;SDS011;7702;51.046;5.184;2022-07-23T00:07:28;8.83;;;7.47;;
15202;SDS011;7702;51.046;5.184;2022-07-23T00:09:54;9.53;;;7.67;;
15202;SDS011;7702;51.046;5.184;2022-07-23T00:12:20;13.97;;;8.93;;
15202;SDS011;7702;51.046;5.184;2022-07-23T00:14:46;9.27;;;8.20;;
15202;SDS011;7702;51.046;5.184;2022-07-23T00:17:12;9.47;;;7.87;;
15202;SDS011;7702;51.046;5.184;2022-07-23T00:19:37;9.03;;;8.10;;
15202;SDS011;7702;51.046;5.184;2022-07-23T00:22:03;9.23;;;7.53;;
15202;SDS011;7702;51.046;5.184;2022-07-23T00:24:29;11.63;;;7.70;;
15202;SDS011;7702;51.046;5.184;2022-07-23T00:26:54;14.33;;;8.37;;
15202;SDS011;7702;51.046;5.184;2022-07-23T00:29:20;10.60;;;8.20;;
15202;SDS011;7702;51.046;5.184;2022-07-23T00:31:46;9.50;;;6.93;;
15202;SDS011;7702;51.046;5.184;2022-07-23T00:34:11;9.87;;;7.40;;
15202;SDS011;7702;51.046;5.184;2022-07-23T00:36:37;12.00;;;8.40;;
15202;SDS011;7702;51.046;5.184;2022-07-23T00:39:03;10.47;;;7.17;;
15202;SDS011;7702;51.046;5.184;2022-07-23T00:41:29;9.70;;;7.77;;
15202;SDS011;7702;51.046;5.184;2022-07-23T00:43:55;9.80;;;7.50;;
15202;SDS011;7702;51.046;5.184;2022-07-23T00:46:21;10.03;;;7.30;;
15202;SDS011;7702;51.046;5.184;2022-07-23T00:48:48;8.60;;;7.67;;
15202;SDS011;7702;51.046;5.184;2022-07-23T00:51:17;11.97;;;7.27;;
15202;SDS011;7702;51.046;5.184;2022-07-23T00:53:44;9.37;;;7.73;;
15202;SDS011;7702;51.046;5.184;2022-07-23T00:56:10;8.53;;;7.03;;
15202;SDS011;7702;51.046;5.184;2022-07-23T00:58:36;10.67;;;7.77;;
15202;SDS011;7702;51.046;5.184;2022-07-23T01:01:02;12.17;;;8.23;;
15202;SDS011;7702;51.046;5.184;2022-07-23T01:03:28;10.57;;;9.48;;
15202;SDS011;7702;51.046;5.184;2022-07-23T01:05:54;10.00;;;7.87;;
15202;SDS011;7702;51.046;5.184;2022-07-23T01:08:19;8.50;;;7.63;;
15202;SDS011;7702;51.046;5.184;2022-07-23T01:10:46;8.47;;;7.63;;
15202;SDS011;7702;51.046;5.184;2022-07-23T01:13:13;13.37;;;8.63;;
15202;SDS011;7702;51.046;5.184;2022-07-23T01:15:39;10.70;;;8.23;;
15202;SDS011;7702;51.046;5.184;2022-07-23T01:18:05;11.23;;;7.80;;
15202;SDS011;7702;51.046;5.184;2022-07-23T01:20:32;12.40;;;8.87;;
15202;SDS011;7702;51.046;5.184;2022-07-23T01:23:00;10.80;;;8.93;;
15202;SDS011;7702;51.046;5.184;2022-07-23T01:25:26;9.13;;;7.73;;
15202;SDS011;7702;51.046;5.184;2022-07-23T01:27:52;14.23;;;8.50;;
15202;SDS011;7702;51.046;5.184;2022-07-23T01:30:18;9.23;;;8.20;;
15202;SDS011;7702;51.046;5.184;2022-07-23T01:32:45;9.87;;;8.87;;
15202;SDS011;7702;51.046;5.184;2022-07-23T01:35:11;14.00;;;8.27;;
15202;SDS011;7702;51.046;5.184;2022-07-23T01:37:37;9.07;;;8.07;;
15202;SDS011;7702;51.046;5.184;2022-07-23T01:40:03;11.20;;;8.43;;
15202;SDS011;7702;51.046;5.184;2022-07-23T01:42:30;13.57;;;8.17;;
15202;SDS011;7702;51.046;5.184;2022-07-23T01:44:55;13.60;;;8.70;;
15202;SDS011;7702;51.046;5.184;2022-07-23T01:47:21;10.87;;;8.43;;
15202;SDS011;7702;51.046;5.184;2022-07-23T01:49:47;11.17;;;8.57;;
15202;SDS011;7702;51.046;5.184;2022-07-23T01:52:13;12.13;;;8.63;;
15202;SDS011;7702;51.046;5.184;2022-07-23T01:54:39;9.63;;;8.30;;
15202;SDS011;7702;51.046;5.184;2022-07-23T01:57:05;10.20;;;8.17;;
15202;SDS011;7702;51.046;5.184;2022-07-23T01:59:31;9.47;;;8.47;;
15202;SDS011;7702;51.046;5.184;2022-07-23T02:01:58;11.80;;;8.97;;
15202;SDS011;7702;51.046;5.184;2022-07-23T02:04:24;9.77;;;8.60;;
15202;SDS011;7702;51.046;5.184;2022-07-23T02:06:50;10.47;;;8.90;;
15202;SDS011;7702;51.046;5.184;2022-07-23T02:09:17;9.77;;;8.13;;
15202;SDS011;7702;51.046;5.184;2022-07-23T02:11:43;10.73;;;8.53;;
15202;SDS011;7702;51.046;5.184;2022-07-23T02:14:09;10.30;;;8.40;;
15202;SDS011;7702;51.046;5.184;2022-07-23T02:16:35;9.20;;;7.37;;
15202;SDS011;7702;51.046;5.184;2022-07-23T02:19:01;9.90;;;8.23;;
15202;SDS011;7702;51.046;5.184;2022-07-23T02:21:27;12.37;;;8.13;;
15202;SDS011;7702;51.046;5.184;2022-07-23T02:23:53;9.33;;;7.70;;
15202;SDS011;7702;51.046;5.184;2022-07-23T02:26:19;12.63;;;8.60;;
15202;SDS011;7702;51.046;5.184;2022-07-23T02:28:44;8.50;;;7.67;;
15202;SDS011;7702;51.046;5.184;2022-07-23T02:31:10;9.87;;;8.10;;
15202;SDS011;7702;51.046;5.184;2022-07-23T02:33:35;10.67;;;8.20;;
15202;SDS011;7702;51.046;5.184;2022-07-23T02:36:01;9.10;;;8.20;;
15202;SDS011;7702;51.046;5.184;2022-07-23T02:38:27;10.23;;;7.40;;
15202;SDS011;7702;51.046;5.184;2022-07-23T02:40:53;9.13;;;7.37;;
15202;SDS011;7702;51.046;5.184;2022-07-23T02:43:19;9.40;;;7.67;;
15202;SDS011;7702;51.046;5.184;2022-07-23T02:45:45;11.80;;;8.40;;
15202;SDS011;7702;51.046;5.184;2022-07-23T02:48:11;10.33;;;7.87;;
15202;SDS011;7702;51.046;5.184;2022-07-23T02:50:39;8.70;;;7.57;;
15202;SDS011;7702;51.046;5.184;2022-07-23T02:53:05;10.73;;;7.57;;
15202;SDS011;7702;51.046;5.184;2022-07-23T02:55:31;10.70;;;8.00;;
15202;SDS011;7702;51.046;5.184;2022-07-23T02:57:57;8.20;;;7.40;;
15202;SDS011;7702;51.046;5.184;2022-07-23T03:00:22;8.43;;;7.43;;
15202;SDS011;7702;51.046;5.184;2022-07-23T03:02:48;10.93;;;8.43;;
15202;SDS011;7702;51.046;5.184;2022-07-23T03:05:14;8.90;;;8.00;;
15202;SDS011;7702;51.046;5.184;2022-07-23T03:07:40;8.73;;;7.87;;
15202;SDS011;7702;51.046;5.184;2022-07-23T03:10:05;11.73;;;7.50;;
15202;SDS011;7702;51.046;5.184;2022-07-23T03:12:31;9.70;;;7.90;;
15202;SDS011;7702;51.046;5.184;2022-07-23T03:14:57;10.20;;;8.27;;
15202;SDS011;7702;51.046;5.184;2022-07-23T03:17:23;8.37;;;7.57;;
15202;SDS011;7702;51.046;5.184;2022-07-23T03:19:49;10.80;;;8.17;;
15202;SDS011;7702;51.046;5.184;2022-07-23T03:22:15;9.67;;;8.33;;
15202;SDS011;7702;51.046;5.184;2022-07-23T03:24:41;11.73;;;8.03;;
15202;SDS011;7702;51.046;5.184;2022-07-23T03:27:18;10.57;;;8.43;;
15202;SDS011;7702;51.046;5.184;2022-07-23T03:29:44;8.33;;;7.50;;
15202;SDS011;7702;51.046;5.184;2022-07-23T03:32:11;9.97;;;7.90;;
15202;SDS011;7702;51.046;5.184;2022-07-23T03:34:37;8.90;;;7.07;;
15202;SDS011;7702;51.046;5.184;2022-07-23T03:37:02;8.67;;;7.90;;
15202;SDS011;7702;51.046;5.184;2022-07-23T03:39:28;10.17;;;7.90;;
15202;SDS011;7702;51.046;5.184;2022-07-23T03:41:54;11.93;;;8.40;;
15202;SDS011;7702;51.046;5.184;2022-07-23T03:44:20;10.83;;;7.60;;
15202;SDS011;7702;51.046;5.184;2022-07-23T03:46:46;9.27;;;8.07;;
15202;SDS011;7702;51.046;5.184;2022-07-23T03:49:11;12.03;;;8.30;;
15202;SDS011;7702;51.046;5.184;2022-07-23T03:51:37;8.23;;;7.33;;
15202;SDS011;7702;51.046;5.184;2022-07-23T03:54:03;8.83;;;7.87;;
15202;SDS011;7702;51.046;5.184;2022-07-23T03:56:29;11.20;;;8.00;;
15202;SDS011;7702;51.046;5.184;2022-07-23T03:58:54;8.50;;;7.60;;
15202;SDS011;7702;51.046;5.184;2022-07-23T04:01:21;9.30;;;8.07;;
15202;SDS011;7702;51.046;5.184;2022-07-23T04:03:46;8.10;;;7.30;;
15202;SDS011;7702;51.046;5.184;2022-07-23T04:06:12;10.00;;;7.77;;
15202;SDS011;7702;51.046;5.184;2022-07-23T04:08:38;8.97;;;8.07;;
15202;SDS011;7702;51.046;5.184;2022-07-23T04:11:04;11.00;;;8.73;;
15202;SDS011;7702;51.046;5.184;2022-07-23T04:13:30;9.47;;;7.93;;
15202;SDS011;7702;51.046;5.184;2022-07-23T04:15:57;11.47;;;8.33;;
15202;SDS011;7702;51.046;5.184;2022-07-23T04:18:23;10.73;;;8.70;;
15202;SDS011;7702;51.046;5.184;2022-07-23T04:20:52;10.00;;;8.27;;
15202;SDS011;7702;51.046;5.184;2022-07-23T04:23:18;14.63;;;8.93;;
15202;SDS011;7702;51.046;5.184;2022-07-23T04:25:44;9.77;;;8.87;;
15202;SDS011;7702;51.046;5.184;2022-07-23T04:28:10;10.97;;;8.33;;
15202;SDS011;7702;51.046;5.184;2022-07-23T04:30:37;9.80;;;8.80;;
15202;SDS011;7702;51.046;5.184;2022-07-23T04:33:03;9.70;;;8.60;;
15202;SDS011;7702;51.046;5.184;2022-07-23T04:35:31;9.37;;;8.47;;
15202;SDS011;7702;51.046;5.184;2022-07-23T04:37:58;9.80;;;8.53;;
15202;SDS011;7702;51.046;5.184;2022-07-23T04:40:25;10.07;;;8.83;;
15202;SDS011;7702;51.046;5.184;2022-07-23T04:42:51;10.80;;;9.20;;
15202;SDS011;7702;51.046;5.184;2022-07-23T04:45:16;13.30;;;9.47;;
15202;SDS011;7702;51.046;5.184;2022-07-23T04:47:42;10.37;;;9.43;;
15202;SDS011;7702;51.046;5.184;2022-07-23T04:50:08;10.60;;;9.40;;
15202;SDS011;7702;51.046;5.184;2022-07-23T04:52:34;12.20;;;9.03;;
15202;SDS011;7702;51.046;5.184;2022-07-23T04:55:00;10.53;;;9.53;;
15202;SDS011;7702;51.046;5.184;2022-07-23T04:57:25;9.73;;;8.67;;
15202;SDS011;7702;51.046;5.184;2022-07-23T04:59:51;10.53;;;9.33;;
15202;SDS011;7702;51.046;5.184;2022-07-23T05:02:17;11.37;;;9.37;;
15202;SDS011;7702;51.046;5.184;2022-07-23T05:04:42;11.97;;;9.70;;
15202;SDS011;7702;51.046;5.184;2022-07-23T05:07:08;11.23;;;9.63;;
15202;SDS011;7702;51.046;5.184;2022-07-23T05:09:33;11.50;;;9.73;;
15202;SDS011;7702;51.046;5.184;2022-07-23T05:11:59;11.33;;;9.77;;
15202;SDS011;7702;51.046;5.184;2022-07-23T05:14:25;11.53;;;10.33;;
15202;SDS011;7702;51.046;5.184;2022-07-23T05:16:52;10.70;;;9.60;;
15202;SDS011;7702;51.046;5.184;2022-07-23T05:19:17;11.77;;;10.43;;
15202;SDS011;7702;51.046;5.184;2022-07-23T05:21:43;11.33;;;9.67;;
15202;SDS011;7702;51.046;5.184;2022-07-23T05:24:09;11.50;;;10.30;;
15202;SDS011;7702;51.046;5.184;2022-07-23T05:26:35;11.30;;;10.00;;
15202;SDS011;7702;51.046;5.184;2022-07-23T05:29:01;11.27;;;8.80;;
15202;SDS011;7702;51.046;5.184;2022-07-23T05:31:26;10.73;;;9.63;;
15202;SDS011;7702;51.046;5.184;2022-07-23T05:33:52;10.63;;;9.63;;
15202;SDS011;7702;51.046;5.184;2022-07-23T05:36:18;10.70;;;9.60;;
15202;SDS011;7702;51.046;5.184;2022-07-23T05:38:44;11.67;;;10.57;;
15202;SDS011;7702;51.046;5.184;2022-07-23T05:41:09;11.47;;;10.30;;
15202;SDS011;7702;51.046;5.184;2022-07-23T05:43:35;10.40;;;8.83;;
15202;SDS011;7702;51.046;5.184;2022-07-23T05:46:01;12.37;;;10.20;;
15202;SDS011;7702;51.046;5.184;2022-07-23T05:48:26;9.97;;;8.90;;
15202;SDS011;7702;51.046;5.184;2022-07-23T05:50:52;10.67;;;9.67;;
15202;SDS011;7702;51.046;5.184;2022-07-23T05:53:18;10.60;;;9.50;;
15202;SDS011;7702;51.046;5.184;2022-07-23T05:55:44;11.20;;;9.93;;
15202;SDS011;7702;51.046;5.184;2022-07-23T05:58:10;10.33;;;9.27;;
15202;SDS011;7702;51.046;5.184;2022-07-23T06:00:36;9.73;;;8.73;;
15202;SDS011;7702;51.046;5.184;2022-07-23T06:03:02;9.90;;;9.00;;
15202;SDS011;7702;51.046;5.184;2022-07-23T06:05:27;9.67;;;8.73;;
15202;SDS011;7702;51.046;5.184;2022-07-23T06:07:53;9.97;;;9.03;;
15202;SDS011;7702;51.046;5.184;2022-07-23T06:10:19;9.67;;;8.77;;
15202;SDS011;7702;51.046;5.184;2022-07-23T06:12:45;10.60;;;8.70;;
15202;SDS011;7702;51.046;5.184;2022-07-23T06:15:11;8.60;;;7.80;;
15202;SDS011;7702;51.046;5.184;2022-07-23T06:17:37;9.33;;;8.33;;
15202;SDS011;7702;51.046;5.184;2022-07-23T06:20:04;9.63;;;8.63;;
15202;SDS011;7702;51.046;5.184;2022-07-23T06:22:31;9.00;;;8.20;;
15202;SDS011;7702;51.046;5.184;2022-07-23T06:24:57;11.17;;;9.00;;
15202;SDS011;7702;51.046;5.184;2022-07-23T06:27:22;9.87;;;8.87;;
15202;SDS011;7702;51.046;5.184;2022-07-23T06:29:48;9.13;;;8.23;;
15202;SDS011;7702;51.046;5.184;2022-07-23T06:32:14;9.10;;;8.30;;
15202;SDS011;7702;51.046;5.184;2022-07-23T06:34:39;9.13;;;8.33;;
15202;SDS011;7702;51.046;5.184;2022-07-23T06:37:05;8.80;;;8.07;;
15202;SDS011;7702;51.046;5.184;2022-07-23T06:39:31;9.63;;;8.60;;
15202;SDS011;7702;51.046;5.184;2022-07-23T06:41:57;9.13;;;8.43;;
15202;SDS011;7702;51.046;5.184;2022-07-23T06:44:23;8.87;;;7.87;;
15202;SDS011;7702;51.046;5.184;2022-07-23T06:46:48;8.43;;;7.73;;
15202;SDS011;7702;51.046;5.184;2022-07-23T06:49:14;8.93;;;8.13;;
15202;SDS011;7702;51.046;5.184;2022-07-23T06:51:40;9.13;;;8.23;;
15202;SDS011;7702;51.046;5.184;2022-07-23T06:54:06;9.57;;;7.90;;
15202;SDS011;7702;51.046;5.184;2022-07-23T06:56:32;8.97;;;8.10;;
15202;SDS011;7702;51.046;5.184;2022-07-23T06:58:58;8.17;;;7.37;;
15202;SDS011;7702;51.046;5.184;2022-07-23T07:01:23;9.23;;;7.57;;
15202;SDS011;7702;51.046;5.184;2022-07-23T07:03:49;10.63;;;8.03;;
15202;SDS011;7702;51.046;5.184;2022-07-23T07:06:16;8.90;;;8.00;;
15202;SDS011;7702;51.046;5.184;2022-07-23T07:08:42;9.30;;;8.40;;
15202;SDS011;7702;51.046;5.184;2022-07-23T07:11:08;8.13;;;7.17;;
15202;SDS011;7702;51.046;5.184;2022-07-23T07:13:35;10.60;;;7.70;;
15202;SDS011;7702;51.046;5.184;2022-07-23T07:16:01;8.50;;;7.63;;
15202;SDS011;7702;51.046;5.184;2022-07-23T07:18:28;9.13;;;8.20;;
15202;SDS011;7702;51.046;5.184;2022-07-23T07:20:53;9.00;;;8.13;;
15202;SDS011;7702;51.046;5.184;2022-07-23T07:23:19;8.23;;;7.43;;
15202;SDS011;7702;51.046;5.184;2022-07-23T07:25:45;11.00;;;8.37;;
15202;SDS011;7702;51.046;5.184;2022-07-23T07:28:11;8.67;;;7.83;;
15202;SDS011;7702;51.046;5.184;2022-07-23T07:30:37;9.03;;;7.73;;
15202;SDS011;7702;51.046;5.184;2022-07-23T07:33:03;8.70;;;7.90;;
15202;SDS011;7702;51.046;5.184;2022-07-23T07:35:29;8.50;;;7.47;;
15202;SDS011;7702;51.046;5.184;2022-07-23T07:37:57;10.40;;;7.90;;
15202;SDS011;7702;51.046;5.184;2022-07-23T07:40:23;7.77;;;6.97;;
15202;SDS011;7702;51.046;5.184;2022-07-23T07:42:53;8.10;;;7.40;;
15202;SDS011;7702;51.046;5.184;2022-07-23T07:45:21;7.70;;;6.77;;
15202;SDS011;7702;51.046;5.184;2022-07-23T07:47:48;7.37;;;6.67;;
15202;SDS011;7702;51.046;5.184;2022-07-23T07:50:15;8.33;;;7.53;;
15202;SDS011;7702;51.046;5.184;2022-07-23T07:52:41;8.67;;;7.57;;
15202;SDS011;7702;51.046;5.184;2022-07-23T07:55:08;7.87;;;7.17;;
15202;SDS011;7702;51.046;5.184;2022-07-23T07:57:34;8.00;;;7.30;;
15202;SDS011;7702;51.046;5.184;2022-07-23T08:00:01;8.10;;;7.43;;
15202;SDS011;7702;51.046;5.184;2022-07-23T08:02:27;7.90;;;7.20;;
15202;SDS011;7702;51.046;5.184;2022-07-23T08:04:52;10.73;;;7.20;;
15202;SDS011;7702;51.046;5.184;2022-07-23T08:07:18;7.00;;;6.33;;
15202;SDS011;7702;51.046;5.184;2022-07-23T08:09:44;8.00;;;6.80;;
15202;SDS011;7702;51.046;5.184;2022-07-23T08:12:10;8.33;;;7.50;;
15202;SDS011;7702;51.046;5.184;2022-07-23T08:14:36;7.73;;;6.43;;
15202;SDS011;7702;51.046;5.184;2022-07-23T08:17:01;7.50;;;6.53;;
15202;SDS011;7702;51.046;5.184;2022-07-23T08:19:27;7.57;;;5.77;;
15202;SDS011;7702;51.046;5.184;2022-07-23T08:21:53;7.97;;;6.07;;
15202;SDS011;7702;51.046;5.184;2022-07-23T08:24:18;6.23;;;5.23;;
15202;SDS011;7702;51.046;5.184;2022-07-23T08:26:44;6.03;;;5.47;;
15202;SDS011;7702;51.046;5.184;2022-07-23T08:29:10;5.77;;;5.17;;
15202;SDS011;7702;51.046;5.184;2022-07-23T08:31:35;6.00;;;5.40;;
15202;SDS011;7702;51.046;5.184;2022-07-23T08:34:01;8.10;;;6.00;;
15202;SDS011;7702;51.046;5.184;2022-07-23T08:36:27;6.93;;;6.17;;
15202;SDS011;7702;51.046;5.184;2022-07-23T08:38:57;7.00;;;5.63;;
15202;SDS011;7702;51.046;5.184;2022-07-23T08:41:29;5.80;;;5.30;;
15202;SDS011;7702;51.046;5.184;2022-07-23T08:43:54;6.17;;;5.33;;
15202;SDS011;7702;51.046;5.184;2022-07-23T08:46:21;6.87;;;4.80;;
15202;SDS011;7702;51.046;5.184;2022-07-23T08:48:48;5.77;;;5.23;;
15202;SDS011;7702;51.046;5.184;2022-07-23T08:51:15;6.43;;;5.90;;
15202;SDS011;7702;51.046;5.184;2022-07-23T08:53:42;5.33;;;4.83;;
15202;SDS011;7702;51.046;5.184;2022-07-23T08:56:08;5.80;;;5.20;;
15202;SDS011;7702;51.046;5.184;2022-07-23T08:58:34;4.60;;;4.20;;
15202;SDS011;7702;51.046;5.184;2022-07-23T09:01:01;4.83;;;4.43;;
15202;SDS011;7702;51.046;5.184;2022-07-23T09:03:32;5.57;;;4.80;;
15202;SDS011;7702;51.046;5.184;2022-07-23T09:06:00;5.60;;;5.10;;
15202;SDS011;7702;51.046;5.184;2022-07-23T09:08:37;5.80;;;4.60;;
15202;SDS011;7702;51.046;5.184;2022-07-23T09:11:06;4.87;;;4.40;;
15202;SDS011;7702;51.046;5.184;2022-07-23T09:13:36;5.97;;;4.60;;
15202;SDS011;7702;51.046;5.184;2022-07-23T09:16:05;5.47;;;4.97;;
15202;SDS011;7702;51.046;5.184;2022-07-23T09:21:24;6.67;;;6.00;;
15202;SDS011;7702;51.046;5.184;2022-07-23T09:31:35;5.20;;;3.90;;
15202;SDS011;7702;51.046;5.184;2022-07-23T09:36:43;5.00;;;4.50;;
15202;SDS011;7702;51.046;5.184;2022-07-23T09:39:09;4.93;;;4.43;;
15202;SDS011;7702;51.046;5.184;2022-07-23T09:41:39;5.10;;;4.60;;
15202;SDS011;7702;51.046;5.184;2022-07-23T09:44:13;5.57;;;3.50;;
15202;SDS011;7702;51.046;5.184;2022-07-23T09:46:41;3.80;;;3.37;;
15202;SDS011;7702;51.046;5.184;2022-07-23T09:49:15;3.50;;;3.30;;
15202;SDS011;7702;51.046;5.184;2022-07-23T09:54:24;4.00;;;3.60;;
15202;SDS011;7702;51.046;5.184;2022-07-23T09:57:00;4.23;;;3.93;;
15202;SDS011;7702;51.046;5.184;2022-07-23T09:59:37;3.67;;;3.37;;
15202;SDS011;7702;51.046;5.184;2022-07-23T10:02:05;4.20;;;3.80;;
15202;SDS011;7702;51.046;5.184;2022-07-23T10:04:32;4.17;;;3.87;;
15202;SDS011;7702;51.046;5.184;2022-07-23T10:06:59;4.37;;;4.03;;
15202;SDS011;7702;51.046;5.184;2022-07-23T10:09:28;4.20;;;3.80;;
15202;SDS011;7702;51.046;5.184;2022-07-23T10:11:56;7.27;;;6.67;;
15202;SDS011;7702;51.046;5.184;2022-07-23T10:14:28;4.27;;;3.10;;
15202;SDS011;7702;51.046;5.184;2022-07-23T10:16:56;3.90;;;2.63;;
15202;SDS011;7702;51.046;5.184;2022-07-23T10:19:22;2.80;;;2.60;;
15202;SDS011;7702;51.046;5.184;2022-07-23T10:21:49;2.83;;;2.50;;
15202;SDS011;7702;51.046;5.184;2022-07-23T10:29:53;2.80;;;2.47;;
15202;SDS011;7702;51.046;5.184;2022-07-23T10:35:26;2.30;;;2.20;;
15202;SDS011;7702;51.046;5.184;2022-07-23T10:40:53;2.77;;;2.20;;
15202;SDS011;7702;51.046;5.184;2022-07-23T10:43:21;2.03;;;1.83;;
15202;SDS011;7702;51.046;5.184;2022-07-23T10:45:47;4.17;;;2.40;;
15202;SDS011;7702;51.046;5.184;2022-07-23T10:48:17;2.53;;;2.33;;
15202;SDS011;7702;51.046;5.184;2022-07-23T10:51:29;3.57;;;1.90;;
15202;SDS011;7702;51.046;5.184;2022-07-23T10:56:16;2.67;;;2.40;;
15202;SDS011;7702;51.046;5.184;2022-07-23T10:59:03;2.60;;;2.40;;
15202;SDS011;7702;51.046;5.184;2022-07-23T11:01:33;2.40;;;1.90;;
15202;SDS011;7702;51.046;5.184;2022-07-23T11:04:03;2.17;;;1.90;;
15202;SDS011;7702;51.046;5.184;2022-07-23T11:15:21;1.70;;;1.60;;
15202;SDS011;7702;51.046;5.184;2022-07-23T11:17:28;1.93;;;1.83;;
15202;SDS011;7702;51.046;5.184;2022-07-23T11:22:50;1.97;;;1.87;;
15202;SDS011;7702;51.046;5.184;2022-07-23T11:27:48;2.00;;;1.80;;
15202;SDS011;7702;51.046;5.184;2022-07-23T11:33:15;2.00;;;1.80;;
15202;SDS011;7702;51.046;5.184;2022-07-23T11:35:43;2.20;;;2.00;;
15202;SDS011;7702;51.046;5.184;2022-07-23T11:38:14;2.27;;;2.07;;
15202;SDS011;7702;51.046;5.184;2022-07-23T11:40:45;1.97;;;1.80;;
15202;SDS011;7702;51.046;5.184;2022-07-23T11:43:19;1.90;;;1.80;;
15202;SDS011;7702;51.046;5.184;2022-07-23T11:45:46;2.17;;;2.07;;
15202;SDS011;7702;51.046;5.184;2022-07-23T11:48:18;2.10;;;2.00;;
15202;SDS011;7702;51.046;5.184;2022-07-23T11:50:45;2.33;;;2.13;;
15202;SDS011;7702;51.046;5.184;2022-07-23T11:53:11;2.50;;;2.30;;
15202;SDS011;7702;51.046;5.184;2022-07-23T11:55:37;2.03;;;1.93;;
15202;SDS011;7702;51.046;5.184;2022-07-23T11:58:03;2.60;;;1.80;;
15202;SDS011;7702;51.046;5.184;2022-07-23T12:00:29;3.07;;;2.63;;
15202;SDS011;7702;51.046;5.184;2022-07-23T12:02:57;2.77;;;2.57;;
15202;SDS011;7702;51.046;5.184;2022-07-23T12:05:27;2.57;;;2.40;;
15202;SDS011;7702;51.046;5.184;2022-07-23T12:07:55;2.60;;;2.40;;
15202;SDS011;7702;51.046;5.184;2022-07-23T12:10:41;2.60;;;2.10;;
15202;SDS011;7702;51.046;5.184;2022-07-23T12:13:10;2.30;;;2.10;;
15202;SDS011;7702;51.046;5.184;2022-07-23T12:15:41;2.43;;;2.23;;
15202;SDS011;7702;51.046;5.184;2022-07-23T12:18:09;2.80;;;2.70;;
15202;SDS011;7702;51.046;5.184;2022-07-23T12:20:37;2.70;;;2.50;;
15202;SDS011;7702;51.046;5.184;2022-07-23T12:23:06;3.80;;;2.70;;
15202;SDS011;7702;51.046;5.184;2022-07-23T12:25:34;3.10;;;2.27;;
15202;SDS011;7702;51.046;5.184;2022-07-23T12:28:06;2.87;;;2.33;;
15202;SDS011;7702;51.046;5.184;2022-07-23T12:30:38;4.20;;;2.30;;
15202;SDS011;7702;51.046;5.184;2022-07-23T12:33:06;2.70;;;2.50;;
15202;SDS011;7702;51.046;5.184;2022-07-23T12:35:35;2.67;;;2.57;;
15202;SDS011;7702;51.046;5.184;2022-07-23T12:38:04;2.43;;;2.33;;
15202;SDS011;7702;51.046;5.184;2022-07-23T12:40:32;4.20;;;2.40;;
15202;SDS011;7702;51.046;5.184;2022-07-23T12:43:02;2.33;;;2.23;;
15202;SDS011;7702;51.046;5.184;2022-07-23T12:45:45;2.30;;;2.20;;
15202;SDS011;7702;51.046;5.184;2022-07-23T12:48:25;2.77;;;2.57;;
15202;SDS011;7702;51.046;5.184;2022-07-23T12:50:52;2.97;;;2.37;;
15202;SDS011;7702;51.046;5.184;2022-07-23T12:53:32;2.40;;;2.20;;
15202;SDS011;7702;51.046;5.184;2022-07-23T12:56:49;2.20;;;2.10;;
15202;SDS011;7702;51.046;5.184;2022-07-23T12:58:55;2.07;;;1.97;;
15202;SDS011;7702;51.046;5.184;2022-07-23T13:06:29;2.33;;;2.13;;
15202;SDS011;7702;51.046;5.184;2022-07-23T13:08:56;2.83;;;2.63;;
15202;SDS011;7702;51.046;5.184;2022-07-23T13:11:21;2.53;;;2.10;;
15202;SDS011;7702;51.046;5.184;2022-07-23T13:13:47;2.00;;;1.90;;
15202;SDS011;7702;51.046;5.184;2022-07-23T13:16:13;2.63;;;2.43;;
15202;SDS011;7702;51.046;5.184;2022-07-23T13:18:38;2.03;;;1.93;;
15202;SDS011;7702;51.046;5.184;2022-07-23T13:21:05;4.77;;;2.17;;
15202;SDS011;7702;51.046;5.184;2022-07-23T13:23:30;3.17;;;2.60;;
15202;SDS011;7702;51.046;5.184;2022-07-23T13:25:56;2.20;;;2.10;;
15202;SDS011;7702;51.046;5.184;2022-07-23T13:28:22;2.70;;;2.50;;
15202;SDS011;7702;51.046;5.184;2022-07-23T13:30:48;2.40;;;2.30;;
15202;SDS011;7702;51.046;5.184;2022-07-23T13:33:16;3.70;;;2.20;;
15202;SDS011;7702;51.046;5.184;2022-07-23T13:35:44;2.67;;;2.37;;
15202;SDS011;7702;51.046;5.184;2022-07-23T13:38:10;2.50;;;2.40;;
15202;SDS011;7702;51.046;5.184;2022-07-23T13:40:40;2.70;;;2.50;;
15202;SDS011;7702;51.046;5.184;2022-07-23T13:43:08;2.83;;;2.63;;
15202;SDS011;7702;51.046;5.184;2022-07-23T13:45:35;2.47;;;2.27;;
15202;SDS011;7702;51.046;5.184;2022-07-23T13:48:02;2.80;;;2.60;;
15202;SDS011;7702;51.046;5.184;2022-07-23T13:50:28;3.00;;;2.57;;
15202;SDS011;7702;51.046;5.184;2022-07-23T13:52:54;2.80;;;2.40;;
15202;SDS011;7702;51.046;5.184;2022-07-23T13:55:20;2.33;;;2.20;;
15202;SDS011;7702;51.046;5.184;2022-07-23T13:57:45;3.00;;;2.80;;
15202;SDS011;7702;51.046;5.184;2022-07-23T14:00:12;3.00;;;2.70;;
15202;SDS011;7702;51.046;5.184;2022-07-23T14:02:38;3.87;;;2.60;;
15202;SDS011;7702;51.046;5.184;2022-07-23T14:05:05;2.90;;;2.70;;
15202;SDS011;7702;51.046;5.184;2022-07-23T14:07:32;2.97;;;2.77;;
15202;SDS011;7702;51.046;5.184;2022-07-23T14:09:58;2.73;;;2.47;;
15202;SDS011;7702;51.046;5.184;2022-07-23T14:12:25;2.70;;;2.60;;
15202;SDS011;7702;51.046;5.184;2022-07-23T14:14:51;2.60;;;2.40;;
15202;SDS011;7702;51.046;5.184;2022-07-23T14:17:17;3.33;;;2.80;;
15202;SDS011;7702;51.046;5.184;2022-07-23T14:19:43;2.83;;;2.63;;
15202;SDS011;7702;51.046;5.184;2022-07-23T14:22:09;4.00;;;2.40;;
15202;SDS011;7702;51.046;5.184;2022-07-23T14:24:35;3.00;;;2.80;;
15202;SDS011;7702;51.046;5.184;2022-07-23T14:27:01;2.40;;;2.20;;
15202;SDS011;7702;51.046;5.184;2022-07-23T14:29:28;3.00;;;2.53;;
15202;SDS011;7702;51.046;5.184;2022-07-23T14:31:53;2.70;;;2.50;;
15202;SDS011;7702;51.046;5.184;2022-07-23T14:34:19;3.20;;;3.00;;
15202;SDS011;7702;51.046;5.184;2022-07-23T14:36:45;2.97;;;2.67;;
15202;SDS011;7702;51.046;5.184;2022-07-23T14:39:10;2.87;;;2.67;;
15202;SDS011;7702;51.046;5.184;2022-07-23T14:41:37;2.53;;;2.37;;
15202;SDS011;7702;51.046;5.184;2022-07-23T14:44:04;2.93;;;2.73;;
15202;SDS011;7702;51.046;5.184;2022-07-23T14:46:30;2.97;;;2.77;;
15202;SDS011;7702;51.046;5.184;2022-07-23T14:48:56;3.45;;;3.10;;
15202;SDS011;7702;51.046;5.184;2022-07-23T14:51:22;2.85;;;2.60;;
15202;SDS011;7702;51.046;5.184;2022-07-23T14:53:47;3.33;;;3.00;;
15202;SDS011;7702;51.046;5.184;2022-07-23T14:56:13;2.83;;;2.63;;
15202;SDS011;7702;51.046;5.184;2022-07-23T14:58:40;2.70;;;2.50;;
15202;SDS011;7702;51.046;5.184;2022-07-23T15:01:06;3.20;;;3.00;;
15202;SDS011;7702;51.046;5.184;2022-07-23T15:03:32;2.60;;;2.40;;
15202;SDS011;7702;51.046;5.184;2022-07-23T15:05:58;3.03;;;2.73;;
15202;SDS011;7702;51.046;5.184;2022-07-23T15:08:24;3.03;;;2.73;;
15202;SDS011;7702;51.046;5.184;2022-07-23T15:10:50;3.10;;;2.90;;
15202;SDS011;7702;51.046;5.184;2022-07-23T15:13:16;3.13;;;2.92;;
15202;SDS011;7702;51.046;5.184;2022-07-23T15:15:43;2.88;;;2.55;;
15202;SDS011;7702;51.046;5.184;2022-07-23T15:18:09;2.90;;;2.70;;
15202;SDS011;7702;51.046;5.184;2022-07-23T15:20:35;2.57;;;2.37;;
15202;SDS011;7702;51.046;5.184;2022-07-23T15:23:02;2.80;;;2.53;;
15202;SDS011;7702;51.046;5.184;2022-07-23T15:25:29;3.50;;;3.20;;
15202;SDS011;7702;51.046;5.184;2022-07-23T15:27:56;2.90;;;2.80;;
15202;SDS011;7702;51.046;5.184;2022-07-23T15:30:23;3.30;;;2.60;;
15202;SDS011;7702;51.046;5.184;2022-07-23T15:32:51;3.10;;;2.90;;
15202;SDS011;7702;51.046;5.184;2022-07-23T15:35:18;3.63;;;2.90;;
15202;SDS011;7702;51.046;5.184;2022-07-23T15:37:44;3.50;;;3.30;;
15202;SDS011;7702;51.046;5.184;2022-07-23T15:40:10;3.77;;;2.47;;
15202;SDS011;7702;51.046;5.184;2022-07-23T15:42:36;3.20;;;2.90;;
15202;SDS011;7702;51.046;5.184;2022-07-23T15:45:03;3.40;;;3.10;;
15202;SDS011;7702;51.046;5.184;2022-07-23T15:47:29;3.20;;;3.00;;